首页
METAR-TAF:

METAR-TAF

机场 :

Gioia del Colle, 意大利

纬度: 40-46N, 经度: 016-56E, 海拔: 345米

当前天气观测

该预报发布于59分钟前的00:55 UTC
风速5节,风向西北
温度 8°C
湿度 71%
气压 1024 hPa
能见度10公里或以上
1500米以下无云,无积雨云

METAR: LIBV 070055Z 32005KT CAVOK 08/03 Q1024 RMK SKC VIS MIN 9999 WIND THR32 35004KT WIND THR14 33006KT BLU

时间: 03:54 (01:54 UTC)

预报

该预报发布于2小时和54分钟前的23:00 UTC
预报有效从07日的 00点(UTC)到 07日的 09点(UTC)
风速9节,风向东北
能见度10公里或以上
1500米以下无云,无积雨云
短暂存在
从 07日的 00点(UTC)到 07日的 04点(UTC)
能見度: 6000

TAF: LIBV 062300Z 0700/0709 05009KT CAVOK TEMPO 0700/0704 6000 NSC

超过4000个机场的气象观测和天气预报(METAR&TAF报告)。

可查询的气象台以黄色和红色小点在地图上表示。

将鼠标移到小点上方,可查看气象台名称。

然后点击查看天气观测和预报。

如需切换地图:点击带黑十字的绿色按钮放大地图;点击带横线的绿色按钮缩小地图;或者点击绿色箭头查看邻近地区的地图。


METAR-TAF: